Time;durP1;ratioP1;P1;durP2;ratioP2;P2;SDS_P1;SDS_P2;PMS_P1;PMS_P2;Temp;Humidity;BMP_temperature;BMP_pressure;BME280_temperature;BME280_humidity;BME280_pressure;Samples;Min_cycle;Max_cycle;Signal;HPM_P1;HPM_P2
2024/01/08 00:01:16;;;;;;;9.00;4.45;;;-3276.00;83.00;;;;;;5010307;28;20033;-41
2024/01/08 00:03:43;;;;;;;5.97;4.05;;;-3276.00;83.70;;;;;;5009901;28;20335;-40
2024/01/08 00:06:10;;;;;;;6.80;4.13;;;-3276.10;83.20;;;;;;4995133;28;20099;-41
2024/01/08 00:08:36;;;;;;;9.30;5.80;;;-3276.00;82.90;;;;;;5010190;28;20040;-40
2024/01/08 00:11:02;;;;;;;8.70;5.20;;;-3276.10;83.50;;;;;;5009649;28;20021;-40
2024/01/08 00:13:29;;;;;;;10.60;5.72;;;-3276.00;83.30;;;;;;5009807;28;20026;-39
2024/01/08 00:15:57;;;;;;;7.53;4.18;;;-3276.00;83.50;;;;;;5010226;28;20021;-42
2024/01/08 00:18:24;;;;;;;7.10;4.25;;;-3275.90;83.00;;;;;;5010441;28;20014;-40
2024/01/08 00:20:51;;;;;;;8.88;4.22;;;-3275.90;83.10;;;;;;5010332;28;20026;-40
2024/01/08 00:23:18;;;;;;;6.07;4.18;;;-3275.90;82.90;;;;;;5010156;28;20432;-40
2024/01/08 00:25:45;;;;;;;6.22;3.72;;;-3275.90;82.70;;;;;;5010357;28;20509;-40
2024/01/08 00:28:12;;;;;;;6.35;3.83;;;-3275.90;82.60;;;;;;5010175;28;20343;-40
2024/01/08 00:30:40;;;;;;;8.90;4.68;;;-3275.90;82.90;;;;;;4992935;28;20048;-40
2024/01/08 00:33:07;;;;;;;9.45;4.65;;;-3275.90;82.80;;;;;;5019126;28;20344;-40
2024/01/08 00:35:34;;;;;;;8.77;4.25;;;-3275.90;83.00;;;;;;5010164;28;20026;-40
2024/01/08 00:38:00;;;;;;;9.50;4.10;;;-3275.90;82.60;;;;;;4994339;28;20091;-40
2024/01/08 00:40:29;;;;;;;6.28;4.13;;;-3275.90;82.30;;;;;;5010236;28;20041;-40
2024/01/08 00:42:57;;;;;;;9.60;4.72;;;-3275.80;82.30;;;;;;5011865;28;20083;-40
2024/01/08 00:45:25;;;;;;;9.18;5.10;;;-3275.80;82.70;;;;;;5009773;28;20543;-40
2024/01/08 00:47:54;;;;;;;7.70;4.80;;;-3275.80;82.50;;;;;;5010010;28;20407;-40
2024/01/08 00:50:21;;;;;;;9.77;5.28;;;-3275.80;82.60;;;;;;5010240;28;20038;-40
2024/01/08 00:52:48;;;;;;;8.20;4.80;;;-3275.80;82.40;;;;;;5009153;28;20049;-41
2024/01/08 00:55:17;;;;;;;10.30;5.47;;;-3275.80;82.70;;;;;;5009931;28;20056;-41
2024/01/08 00:57:47;;;;;;;6.75;3.45;;;-3275.80;83.00;;;;;;5009888;28;20072;-42
2024/01/08 01:00:14;;;;;;;8.77;4.18;;;-3275.70;83.00;;;;;;5009890;28;20468;-39
2024/01/08 01:02:41;;;;;;;8.90;4.72;;;-3275.70;82.70;;;;;;4996448;28;20033;-40
2024/01/08 01:05:08;;;;;;;8.55;4.82;;;-3275.70;83.00;;;;;;5009440;28;20056;-40
2024/01/08 01:07:35;;;;;;;9.27;4.97;;;-3275.70;83.20;;;;;;5009751;28;20101;-40
2024/01/08 01:10:02;;;;;;;10.02;4.65;;;-3275.80;83.30;;;;;;5009693;28;20022;-39
2024/01/08 01:12:27;;;;;;;10.18;4.20;;;-3275.70;83.10;;;;;;5009646;28;20458;-40
2024/01/08 01:14:57;;;;;;;10.10;4.75;;;-3275.70;83.20;;;;;;5019396;28;20108;-41
2024/01/08 01:17:28;;;;;;;8.80;4.00;;;-3275.70;83.20;;;;;;5009531;28;20104;-39
2024/01/08 01:19:57;;;;;;;7.43;4.25;;;-3275.70;83.30;;;;;;5009557;28;20096;-42
2024/01/08 01:22:22;;;;;;;9.77;4.85;;;-3275.60;83.20;;;;;;5008756;28;20044;-40
2024/01/08 01:24:49;;;;;;;7.45;4.40;;;-3275.60;83.80;;;;;;5008652;28;20034;-40
2024/01/08 01:27:16;;;;;;;8.80;4.57;;;-3275.60;83.80;;;;;;5008974;28;20396;-40
2024/01/08 01:29:43;;;;;;;8.48;4.05;;;-3275.60;84.40;;;;;;5009604;28;20037;-40
2024/01/08 01:32:10;;;;;;;6.95;4.13;;;-3275.50;84.20;;;;;;5009298;28;20034;-40
2024/01/08 01:34:39;;;;;;;6.63;3.40;;;-3275.50;83.70;;;;;;5009643;28;20466;-39
2024/01/08 01:37:05;;;;;;;7.57;3.57;;;-3275.50;83.30;;;;;;5008967;28;20030;-40
2024/01/08 01:39:32;;;;;;;8.32;3.13;;;-3275.50;83.40;;;;;;5017585;27;20044;-39
2024/01/08 01:42:06;;;;;;;5.38;3.20;;;-3275.40;83.50;;;;;;5009168;28;20026;-40
2024/01/08 01:44:32;;;;;;;5.70;2.63;;;-3275.40;83.30;;;;;;5019172;28;20482;-40
2024/01/08 01:46:59;;;;;;;5.65;3.47;;;-3275.30;83.30;;;;;;5011620;28;20034;-40
2024/01/08 01:49:25;;;;;;;7.38;3.08;;;-3275.40;83.60;;;;;;5009354;28;20034;-40
2024/01/08 01:51:54;;;;;;;8.23;5.47;;;-3275.40;83.60;;;;;;5010835;28;20021;-40
2024/01/08 01:54:23;;;;;;;8.18;3.45;;;-3275.40;83.30;;;;;;5009519;28;20030;-39
2024/01/08 01:57:09;;;;;;;11.52;5.45;;;-3275.30;83.20;;;;;;5008941;28;20022;-40
2024/01/08 01:59:36;;;;;;;5.55;3.08;;;-3275.30;83.40;;;;;;5009162;28;20673;-39
2024/01/08 02:02:04;;;;;;;10.35;3.95;;;-3275.30;83.50;;;;;;5009012;28;20782;-42
2024/01/08 02:04:34;;;;;;;5.70;3.28;;;-3275.30;83.70;;;;;;5009027;28;20026;-40
2024/01/08 02:07:04;;;;;;;6.32;3.70;;;-3275.30;83.90;;;;;;5014428;28;20331;-39
2024/01/08 02:09:34;;;;;;;6.22;2.95;;;-3275.30;84.20;;;;;;4991737;28;20034;-40
2024/01/08 02:12:01;;;;;;;7.07;3.42;;;-3275.30;84.40;;;;;;5009183;28;20029;-40
2024/01/08 02:14:28;;;;;;;7.20;2.92;;;-3275.20;84.40;;;;;;5009855;28;20472;-40
2024/01/08 02:16:55;;;;;;;7.65;4.35;;;-3275.20;84.20;;;;;;5008692;28;20052;-39
2024/01/08 02:19:23;;;;;;;7.03;3.33;;;-3275.20;84.60;;;;;;5008999;28;20542;-42
2024/01/08 02:21:49;;;;;;;7.60;3.70;;;-3275.20;84.70;;;;;;5008533;28;20038;-40
2024/01/08 02:24:19;;;;;;;8.13;4.18;;;-3275.20;84.80;;;;;;5008654;28;20033;-40
2024/01/08 02:26:45;;;;;;;;;;;-3275.20;84.80;;;;;;5012753;28;20036;-40
2024/01/08 02:29:17;;;;;;;9.95;3.22;;;-3275.10;84.70;;;;;;5008953;28;20265;-40
2024/01/08 02:31:43;;;;;;;9.57;3.88;;;-3275.10;84.80;;;;;;5008345;28;20469;-42
2024/01/08 02:34:09;;;;;;;10.48;4.03;;;-3275.10;85.00;;;;;;4991402;28;20026;-40
2024/01/08 02:36:36;;;;;;;6.55;4.45;;;-3275.20;85.40;;;;;;5007634;28;20026;-40
2024/01/08 02:39:05;;;;;;;8.00;3.53;;;-3275.20;85.60;;;;;;5046979;27;20121;-41
2024/01/08 02:41:32;;;;;;;7.97;3.83;;;-3275.20;85.60;;;;;;5012270;28;20064;-40
2024/01/08 02:43:59;;;;;;;7.43;3.28;;;-3275.20;85.50;;;;;;5011757;28;20133;-43
2024/01/08 02:46:26;;;;;;;9.52;4.43;;;-3275.30;85.60;;;;;;5011563;28;20030;-40
2024/01/08 02:48:52;;;;;;;7.32;3.50;;;-3275.30;85.50;;;;;;5011365;28;20034;-40
2024/01/08 02:51:19;;;;;;;7.95;4.65;;;-3275.40;85.60;;;;;;5011668;28;20030;-39
2024/01/08 02:53:46;;;;;;;6.13;3.55;;;-3275.30;85.80;;;;;;5011549;28;20473;-41
2024/01/08 02:56:21;;;;;;;7.15;3.65;;;-3275.30;85.90;;;;;;5011656;28;20026;-40
2024/01/08 02:58:49;;;;;;;6.05;3.08;;;-3275.30;85.80;;;;;;4996761;28;20514;-41
2024/01/08 03:01:16;;;;;;;9.30;4.47;;;-3275.30;85.90;;;;;;4994411;28;20030;-40
2024/01/08 03:03:42;;;;;;;9.40;4.43;;;-3275.30;85.90;;;;;;5011507;28;20030;-40
2024/01/08 03:06:09;;;;;;;8.57;3.67;;;-3275.30;86.00;;;;;;5011157;28;20034;-40
2024/01/08 03:08:36;;;;;;;6.00;2.88;;;-3275.30;86.10;;;;;;5012953;28;20022;-39
2024/01/08 03:11:03;;;;;;;8.05;3.97;;;-3275.30;86.20;;;;;;4994032;28;20025;-40
2024/01/08 03:13:30;;;;;;;21.10;4.65;;;-3275.30;86.00;;;;;;5011278;28;20038;-40
2024/01/08 03:15:57;;;;;;;6.10;3.80;;;-3275.30;85.80;;;;;;5011355;28;20029;-40
2024/01/08 03:18:23;;;;;;;9.55;4.57;;;-3275.30;85.80;;;;;;5013580;28;20068;-40
2024/01/08 03:20:54;;;;;;;7.53;4.03;;;-3275.30;85.80;;;;;;5010720;28;20030;-42
2024/01/08 03:23:21;;;;;;;8.98;4.50;;;-3275.30;85.60;;;;;;5012620;28;20040;-39
2024/01/08 03:25:48;;;;;;;11.00;3.63;;;-3275.30;85.90;;;;;;5010869;28;20030;-40
2024/01/08 03:28:15;;;;;;;6.88;4.28;;;-3275.30;86.10;;;;;;5015398;27;20030;-40
2024/01/08 03:30:40;;;;;;;7.80;3.80;;;-3275.30;86.40;;;;;;5011093;28;20018;-40
2024/01/08 03:33:08;;;;;;;8.27;3.88;;;-3275.30;86.50;;;;;;4996201;28;20149;-40
2024/01/08 03:35:35;;;;;;;7.45;3.55;;;-3275.30;86.30;;;;;;5011157;28;20367;-40
2024/01/08 03:38:04;;;;;;;6.50;3.65;;;-3275.20;86.30;;;;;;5012466;27;20033;-40
2024/01/08 03:40:36;;;;;;;8.75;4.60;;;-3275.20;86.30;;;;;;5011269;28;20033;-41
2024/01/08 03:43:04;;;;;;;8.13;4.00;;;-3275.20;86.60;;;;;;5011028;28;20382;-40
2024/01/08 03:45:31;;;;;;;7.03;3.20;;;-3275.10;86.90;;;;;;5010590;28;20037;-40
2024/01/08 03:47:56;;;;;;;12.73;3.50;;;-3275.20;86.90;;;;;;4993145;28;20128;-39
2024/01/08 03:50:23;;;;;;;6.85;3.35;;;-3275.20;86.90;;;;;;4993416;28;20102;-40
2024/01/08 03:52:52;;;;;;;12.48;3.35;;;-3275.20;87.00;;;;;;5011058;28;20041;-40
2024/01/08 03:55:19;;;;;;;9.13;3.58;;;-3275.30;87.40;;;;;;4993972;28;20034;-40
2024/01/08 03:57:45;;;;;;;5.50;2.78;;;-3275.30;87.40;;;;;;5010570;28;20034;-40
2024/01/08 04:00:15;;;;;;;6.63;3.45;;;-3275.40;87.30;;;;;;5010842;28;20238;-40
2024/01/08 04:02:42;;;;;;;6.85;3.40;;;-3275.40;87.40;;;;;;5010789;28;20151;-39
2024/01/08 04:05:12;;;;;;;7.65;3.35;;;-3275.40;87.30;;;;;;5012033;28;20113;-39
2024/01/08 04:07:39;;;;;;;8.60;3.00;;;-3275.40;87.30;;;;;;5010687;28;20363;-40
2024/01/08 04:10:07;;;;;;;6.90;3.22;;;-3275.50;87.10;;;;;;4997247;28;20037;-40
2024/01/08 04:12:33;;;;;;;7.15;3.13;;;-3275.50;87.30;;;;;;5010761;28;20064;-40
2024/01/08 04:15:00;;;;;;;7.40;3.25;;;-3275.60;87.20;;;;;;5010897;28;20022;-39
2024/01/08 04:17:32;;;;;;;8.15;3.13;;;-3275.60;87.40;;;;;;5010611;28;20026;-39
2024/01/08 04:19:59;;;;;;;6.93;3.03;;;-3275.60;87.10;;;;;;5010892;28;20456;-40
2024/01/08 04:22:26;;;;;;;4.93;3.47;;;-3275.70;87.20;;;;;;5010398;28;20030;-40
2024/01/08 04:24:55;;;;;;;5.93;3.22;;;-3275.70;87.30;;;;;;5010541;28;20040;-40
2024/01/08 04:27:22;;;;;;;8.48;4.47;;;-3275.70;87.40;;;;;;5009931;28;20026;-40
2024/01/08 04:29:48;;;;;;;6.13;2.83;;;-3275.70;87.50;;;;;;5009494;28;20045;-40
2024/01/08 04:32:13;;;;;;;11.38;3.17;;;-3275.70;87.50;;;;;;5010064;28;20367;-40
2024/01/08 04:34:40;;;;;;;7.38;2.80;;;-3275.70;87.60;;;;;;5010158;28;20030;-40
2024/01/08 04:37:07;;;;;;;6.55;3.22;;;-3275.80;87.70;;;;;;5010369;28;20037;-40
2024/01/08 04:39:35;;;;;;;8.60;2.83;;;-3275.80;87.60;;;;;;5030575;27;20155;-40
2024/01/08 04:42:03;;;;;;;7.82;2.88;;;-3275.90;87.70;;;;;;5010260;28;20018;-41
2024/01/08 04:44:32;;;;;;;13.40;3.55;;;-3275.90;87.50;;;;;;5010102;28;20045;-39
2024/01/08 04:46:59;;;;;;;;;;;-3276.00;86.70;;;;;;4993365;28;20100;-40
2024/01/08 04:49:26;;;;;;;7.20;2.30;;;-3276.10;86.40;;;;;;5010244;28;19905;-40
2024/01/08 04:51:53;;;;;;;4.75;2.20;;;-3276.10;86.20;;;;;;5009883;28;20047;-40
2024/01/08 04:54:18;;;;;;;4.75;1.98;;;-3276.10;86.00;;;;;;4992665;28;20029;-40
2024/01/08 04:56:48;;;;;;;10.98;2.88;;;-3276.20;86.00;;;;;;5009835;28;20474;-40
2024/01/08 04:59:14;;;;;;;9.77;2.30;;;-3276.20;85.50;;;;;;5014032;28;20061;-41
2024/01/08 05:01:41;;;;;;;7.05;3.25;;;-3276.20;85.30;;;;;;5009559;28;20437;-40
2024/01/08 05:04:07;;;;;;;16.35;3.15;;;-3276.30;85.20;;;;;;5009180;28;20096;-40
2024/01/08 05:06:37;;;;;;;5.97;2.70;;;-3276.30;85.50;;;;;;5009033;28;20033;-40
2024/01/08 05:09:04;;;;;;;9.02;2.10;;;-3276.40;85.10;;;;;;4992207;28;20030;-39
2024/01/08 05:11:32;;;;;;;3.38;1.88;;;-3276.40;85.00;;;;;;5009698;28;20026;-40
2024/01/08 05:13:59;;;;;;;7.53;2.55;;;-3276.40;84.60;;;;;;5009656;28;20018;-40
2024/01/08 05:16:27;;;;;;;6.78;2.40;;;-3276.40;84.70;;;;;;4993402;28;20062;-40
2024/01/08 05:18:54;;;;;;;8.00;2.13;;;-3276.40;85.10;;;;;;4997794;28;20029;-40
2024/01/08 05:21:20;;;;;;;9.10;2.10;;;-3276.40;85.20;;;;;;5013041;28;20041;-40
2024/01/08 05:23:47;;;;;;;5.07;2.63;;;-3276.40;85.60;;;;;;5008800;28;20397;-40
2024/01/08 05:26:14;;;;;;;10.65;2.60;;;-3276.40;85.70;;;;;;5011279;28;20037;-40
2024/01/08 05:28:41;;;;;;;7.97;1.95;;;-3276.40;85.80;;;;;;5012738;28;20044;-40
2024/01/08 05:31:08;;;;;;;5.20;2.15;;;-3276.40;85.90;;;;;;5013550;28;20030;-41
2024/01/08 05:33:37;;;;;;;7.88;2.08;;;-3276.40;85.60;;;;;;5015751;28;20028;-40
2024/01/08 05:36:04;;;;;;;6.20;2.00;;;-3276.40;85.00;;;;;;5005836;28;20109;-40
2024/01/08 05:38:31;;;;;;;8.25;2.67;;;-3276.40;84.60;;;;;;5021526;28;20026;-40
2024/01/08 05:40:57;;;;;;;3.97;2.00;;;-3276.40;84.80;;;;;;5017109;28;20037;-40
2024/01/08 05:43:24;;;;;;;5.22;2.38;;;-3276.50;85.40;;;;;;5015050;28;20129;-40
2024/01/08 05:45:51;;;;;;;9.10;2.13;;;-3276.40;85.50;;;;;;5016936;28;20026;-42
2024/01/08 05:48:19;;;;;;;7.78;2.03;;;-3276.40;85.20;;;;;;5016933;28;20052;-40
2024/01/08 05:50:49;;;;;;;4.68;1.83;;;-3276.40;84.80;;;;;;5009282;28;20430;-40
2024/01/08 05:53:15;;;;;;;9.40;2.30;;;-3276.40;85.00;;;;;;5009195;28;20022;-40
2024/01/08 05:55:42;;;;;;;7.20;3.45;;;-3276.50;84.90;;;;;;5011183;28;20034;-40
2024/01/08 05:58:09;;;;;;;6.57;2.03;;;-3276.60;85.10;;;;;;5009032;28;20045;-40
2024/01/08 06:00:35;;;;;;;7.55;2.33;;;-3276.60;85.20;;;;;;5009330;28;20033;-40
2024/01/08 06:03:01;;;;;;;5.30;2.03;;;-3276.60;84.80;;;;;;5013853;28;20034;-40
2024/01/08 06:05:27;;;;;;;5.15;2.13;;;-3276.60;82.70;;;;;;4991472;28;20431;-40
2024/01/08 06:07:54;;;;;;;6.38;2.13;;;-3276.60;82.10;;;;;;5017060;28;20081;-42
2024/01/08 06:10:20;;;;;;;3.95;1.38;;;-3276.70;83.20;;;;;;5018895;28;20022;-42
2024/01/08 06:12:47;;;;;;;4.45;1.65;;;-3276.70;82.30;;;;;;4997608;28;20037;-39
2024/01/08 06:15:14;;;;;;;6.60;2.35;;;0.00;80.50;;;;;;5017838;28;20022;-40
2024/01/08 06:17:41;;;;;;;4.82;2.20;;;0.00;81.00;;;;;;5011832;28;20041;-39
2024/01/08 06:20:09;;;;;;;6.18;1.65;;;0.00;81.60;;;;;;5017046;28;20285;-41
2024/01/08 06:22:35;;;;;;;7.25;2.13;;;0.00;80.90;;;;;;5019165;28;20049;-42
2024/01/08 06:25:04;;;;;;;7.05;1.80;;;0.00;81.10;;;;;;5023324;28;20030;-40
2024/01/08 06:27:30;;;;;;;4.47;1.77;;;0.00;81.00;;;;;;5012293;28;20026;-39
2024/01/08 06:29:56;;;;;;;6.72;2.60;;;0.00;81.20;;;;;;5015531;28;20509;-40
2024/01/08 06:32:24;;;;;;;6.03;1.70;;;0.00;81.20;;;;;;5018309;28;20077;-40
2024/01/08 06:34:51;;;;;;;6.65;2.10;;;0.00;80.70;;;;;;5014329;28;20060;-40
2024/01/08 06:37:18;;;;;;;6.72;2.08;;;0.00;80.40;;;;;;5016262;28;20030;-41
2024/01/08 06:39:45;;;;;;;4.43;1.90;;;0.00;81.20;;;;;;5028717;27;20120;-39
2024/01/08 06:42:10;;;;;;;8.07;2.03;;;0.00;80.90;;;;;;5014266;28;20030;-43
2024/01/08 06:44:37;;;;;;;6.30;2.38;;;0.00;80.90;;;;;;5014390;28;20037;-40
2024/01/08 06:47:04;;;;;;;6.75;2.30;;;0.00;80.70;;;;;;5014898;28;20121;-40
2024/01/08 06:49:31;;;;;;;6.80;1.80;;;0.00;80.40;;;;;;5016733;28;20049;-40
2024/01/08 06:52:02;;;;;;;7.70;2.15;;;0.00;80.40;;;;;;5020826;28;20087;-40
2024/01/08 06:54:28;;;;;;;7.25;2.75;;;0.00;80.60;;;;;;5011563;28;20629;-40
2024/01/08 06:56:54;;;;;;;8.57;2.00;;;0.00;81.10;;;;;;5011429;28;20061;-41
2024/01/08 06:59:21;;;;;;;4.75;2.15;;;0.00;80.90;;;;;;5012758;28;20388;-39
2024/01/08 07:01:51;;;;;;;8.52;2.20;;;0.00;80.70;;;;;;5017064;27;20584;-42
2024/01/08 07:04:18;;;;;;;8.77;2.35;;;0.00;80.60;;;;;;5022588;28;20018;-42
2024/01/08 07:06:51;;;;;;;4.60;2.10;;;0.00;81.40;;;;;;5013820;28;20025;-40
2024/01/08 07:09:18;;;;;;;7.70;2.00;;;0.00;82.00;;;;;;5013880;28;20030;-42
2024/01/08 07:11:44;;;;;;;5.45;2.10;;;0.00;81.60;;;;;;4996630;28;20113;-40
2024/01/08 07:14:11;;;;;;;7.55;2.38;;;0.00;80.80;;;;;;5016280;28;20175;-40
2024/01/08 07:16:37;;;;;;;9.32;2.47;;;0.00;81.20;;;;;;5011906;28;20045;-40
2024/01/08 07:19:03;;;;;;;7.97;2.92;;;0.00;81.80;;;;;;5011423;28;20034;-40
2024/01/08 07:21:30;;;;;;;7.45;2.10;;;0.00;81.90;;;;;;5014925;28;20137;-40
2024/01/08 07:23:58;;;;;;;6.50;2.60;;;0.00;82.30;;;;;;5016672;28;20660;-39
2024/01/08 07:26:27;;;;;;;11.57;3.08;;;0.00;82.40;;;;;;5010853;28;20117;-40
2024/01/08 07:28:53;;;;;;;7.45;2.60;;;0.00;82.30;;;;;;5011048;28;20018;-40
2024/01/08 07:31:19;;;;;;;6.30;2.55;;;0.00;82.10;;;;;;5013046;28;20422;-41
2024/01/08 07:33:45;;;;;;;8.85;2.40;;;0.00;82.80;;;;;;5010511;28;20037;-40
2024/01/08 07:36:11;;;;;;;6.30;2.90;;;0.00;82.70;;;;;;5011299;28;20025;-40
2024/01/08 07:38:41;;;;;;;3.72;1.80;;;0.00;83.10;;;;;;5006270;28;20030;-41
2024/01/08 07:41:12;;;;;;;5.22;2.45;;;0.00;82.30;;;;;;5014228;28;20059;-40
2024/01/08 07:43:42;;;;;;;7.78;3.97;;;0.00;82.00;;;;;;5010402;28;20050;-40
2024/01/08 07:46:09;;;;;;;11.07;2.60;;;0.00;82.40;;;;;;5010151;28;20419;-40
2024/01/08 07:48:36;;;;;;;6.03;2.38;;;0.00;82.80;;;;;;5010886;28;20454;-40
2024/01/08 07:51:03;;;;;;;6.80;2.75;;;0.00;82.50;;;;;;5011705;28;20025;-39
2024/01/08 07:53:30;;;;;;;5.70;1.80;;;0.00;82.00;;;;;;5010358;28;20029;-40
2024/01/08 07:55:58;;;;;;;5.57;2.28;;;0.00;81.70;;;;;;5009655;28;20034;-40
2024/01/08 07:58:25;;;;;;;4.65;2.42;;;0.00;81.90;;;;;;4996599;28;20030;-40
2024/01/08 08:00:52;;;;;;;11.52;2.35;;;0.10;81.80;;;;;;5036455;27;20412;-40
2024/01/08 08:03:21;;;;;;;7.78;2.33;;;0.00;82.00;;;;;;5028860;27;20090;-42
2024/01/08 08:05:50;;;;;;;6.47;2.70;;;0.10;81.80;;;;;;5014201;27;20090;-41
2024/01/08 08:08:17;;;;;;;;;;;0.10;82.30;;;;;;5036460;27;20455;-40
2024/01/08 08:10:47;;;;;;;9.80;3.47;;;0.10;82.10;;;;;;5012863;27;19915;-39
2024/01/08 08:13:13;;;;;;;5.18;2.45;;;0.10;82.90;;;;;;5042236;27;20575;-40
2024/01/08 08:15:40;;;;;;;6.28;2.80;;;0.10;82.70;;;;;;4995496;28;20038;-40
2024/01/08 08:18:07;;;;;;;8.05;3.38;;;0.10;82.60;;;;;;5023321;27;20049;-40
2024/01/08 08:20:37;;;;;;;7.55;4.65;;;0.20;82.70;;;;;;5020426;28;20094;-41
2024/01/08 08:23:06;;;;;;;7.97;3.88;;;0.20;82.90;;;;;;5021929;28;20029;-40
2024/01/08 08:25:33;;;;;;;6.75;3.78;;;0.20;82.60;;;;;;5064208;27;20065;-42
2024/01/08 08:27:58;;;;;;;9.70;3.80;;;0.20;83.10;;;;;;5014987;27;20029;-40
2024/01/08 08:30:26;;;;;;;18.08;10.48;;;0.20;83.00;;;;;;5018099;28;20033;-43
2024/01/08 08:32:56;;;;;;;20.88;11.02;;;0.10;82.80;;;;;;5011803;28;20022;-40
2024/01/08 08:35:23;;;;;;;36.53;20.00;;;0.10;83.10;;;;;;5010711;28;20022;-40
2024/01/08 08:37:51;;;;;;;11.27;6.32;;;0.20;83.40;;;;;;5034207;27;20117;-40
2024/01/08 08:40:17;;;;;;;7.72;3.20;;;0.10;82.70;;;;;;5015857;28;20045;-41
2024/01/08 08:42:44;;;;;;;6.97;3.40;;;0.20;82.70;;;;;;5005987;28;20386;-40
2024/01/08 08:45:11;;;;;;;7.70;2.55;;;0.20;82.60;;;;;;4997000;28;20113;-42
2024/01/08 08:47:45;;;;;;;4.40;2.40;;;0.20;82.40;;;;;;4989755;28;20030;-40
2024/01/08 08:50:12;;;;;;;5.65;2.75;;;0.20;82.30;;;;;;4991978;28;20022;-41
2024/01/08 08:52:39;;;;;;;17.73;9.63;;;0.20;82.60;;;;;;4989948;28;20031;-41
2024/01/08 08:55:09;;;;;;;52.22;30.05;;;0.20;82.40;;;;;;5061758;28;20033;-45
2024/01/08 08:57:39;;;;;;;11.25;6.55;;;0.20;82.50;;;;;;4991085;28;20117;-41
2024/01/08 09:00:08;;;;;;;8.98;6.13;;;0.20;82.60;;;;;;5064468;28;20042;-40
2024/01/08 09:02:39;;;;;;;6.05;2.85;;;0.20;82.90;;;;;;4989555;28;20466;-42
2024/01/08 09:05:07;;;;;;;7.10;4.65;;;0.20;82.40;;;;;;4994844;28;20101;-40
2024/01/08 09:07:34;;;;;;;6.28;3.08;;;0.20;81.80;;;;;;4990853;28;20018;-41
2024/01/08 09:10:04;;;;;;;4.93;2.90;;;0.20;81.10;;;;;;5059475;28;20041;-40
2024/01/08 09:12:31;;;;;;;7.07;2.80;;;0.20;80.00;;;;;;4990498;28;20049;-40
2024/01/08 09:14:57;;;;;;;5.03;2.95;;;0.30;79.90;;;;;;4993753;28;20034;-41
2024/01/08 09:17:25;;;;;;;4.55;2.47;;;0.30;78.70;;;;;;5002214;28;20030;-40
2024/01/08 09:19:55;;;;;;;5.90;3.35;;;0.20;78.10;;;;;;4992635;28;20036;-40
2024/01/08 09:22:22;;;;;;;5.80;2.72;;;0.20;76.90;;;;;;4998579;28;20073;-40
2024/01/08 09:24:48;;;;;;;7.13;3.22;;;0.30;78.40;;;;;;5004057;28;20021;-41
2024/01/08 09:27:15;;;;;;;8.63;3.20;;;0.30;78.20;;;;;;4999438;28;20103;-40
2024/01/08 09:29:40;;;;;;;6.70;2.88;;;0.30;78.40;;;;;;4993579;28;20026;-41
2024/01/08 09:32:09;;;;;;;6.85;2.15;;;0.30;79.80;;;;;;5000456;28;20070;-40
2024/01/08 09:34:36;;;;;;;6.88;1.98;;;0.30;79.90;;;;;;4990906;28;20057;-40
2024/01/08 09:37:16;;;;;;;7.65;2.33;;;0.40;79.20;;;;;;4990222;28;20034;-42
2024/01/08 09:39:43;;;;;;;5.95;1.92;;;0.30;79.50;;;;;;5058660;28;20118;-40
2024/01/08 09:42:12;;;;;;;4.70;1.92;;;0.30;79.60;;;;;;4999995;28;20048;-39
2024/01/08 09:44:49;;;;;;;5.83;2.43;;;0.30;79.40;;;;;;4993476;28;20026;-40
2024/01/08 09:47:19;;;;;;;4.68;2.00;;;0.30;78.10;;;;;;4991417;28;20050;-40
2024/01/08 09:49:46;;;;;;;4.68;1.83;;;0.40;77.80;;;;;;4981962;28;20076;-40
2024/01/08 09:52:17;;;;;;;3.95;2.08;;;0.40;77.60;;;;;;4991259;28;20057;-40
2024/01/08 09:54:44;;;;;;;5.32;2.17;;;0.40;77.40;;;;;;4991685;28;20026;-40
2024/01/08 09:57:10;;;;;;;8.30;2.20;;;0.40;77.10;;;;;;4976278;28;20118;-39
2024/01/08 09:59:37;;;;;;;3.35;1.90;;;0.40;75.80;;;;;;4974017;28;20031;-40
2024/01/08 10:02:14;;;;;;;4.10;2.03;;;0.40;74.50;;;;;;4992538;28;20096;-43
2024/01/08 10:04:40;;;;;;;3.85;2.10;;;0.40;75.20;;;;;;4992275;28;20034;-43
2024/01/08 10:07:08;;;;;;;5.10;1.60;;;0.50;75.50;;;;;;4990126;28;20034;-40
2024/01/08 10:09:35;;;;;;;5.27;1.60;;;0.50;76.50;;;;;;4995969;28;20025;-40
2024/01/08 10:12:05;;;;;;;5.70;2.05;;;0.50;77.10;;;;;;4992348;28;20022;-42
2024/01/08 10:14:32;;;;;;;;;;;0.50;77.20;;;;;;4999126;28;20034;-40
2024/01/08 10:17:05;;;;;;;5.45;3.53;;;0.50;77.20;;;;;;4996488;28;19929;-43
2024/01/08 10:19:32;;;;;;;3.47;2.00;;;0.50;77.60;;;;;;4991742;28;20739;-40
2024/01/08 10:22:13;;;;;;;5.35;2.30;;;0.50;77.40;;;;;;4972698;28;20352;-42
2024/01/08 10:24:42;;;;;;;6.55;2.55;;;0.50;77.20;;;;;;4993006;28;20034;-41
2024/01/08 10:27:11;;;;;;;5.80;3.15;;;0.50;76.80;;;;;;4995729;28;20038;-40
2024/01/08 10:29:39;;;;;;;3.50;2.03;;;0.50;76.70;;;;;;4991818;28;20035;-42
2024/01/08 10:32:11;;;;;;;3.92;1.65;;;0.50;76.30;;;;;;4997913;28;20106;-41
2024/01/08 10:34:38;;;;;;;6.32;1.73;;;0.40;74.50;;;;;;5001731;28;20113;-42
2024/01/08 10:37:05;;;;;;;5.30;2.10;;;0.50;77.80;;;;;;4976201;28;20026;-42
2024/01/08 10:39:40;;;;;;;8.10;2.70;;;0.50;77.80;;;;;;5048812;28;20026;-40
2024/01/08 10:42:08;;;;;;;3.75;1.90;;;0.50;78.20;;;;;;4990760;28;20045;-41
2024/01/08 10:44:38;;;;;;;3.22;1.52;;;0.50;77.20;;;;;;5014225;28;20133;-40
2024/01/08 10:47:19;;;;;;;4.00;1.77;;;0.50;76.60;;;;;;5013055;28;20033;-41
2024/01/08 10:49:51;;;;;;;7.15;1.92;;;0.50;76.40;;;;;;4991779;28;20069;-41
2024/01/08 10:52:36;;;;;;;7.10;1.83;;;0.50;76.90;;;;;;5008167;28;20026;-41
2024/01/08 10:55:05;;;;;;;3.88;1.88;;;0.50;77.40;;;;;;5012575;28;20030;-41
2024/01/08 10:57:41;;;;;;;4.13;2.00;;;0.50;78.20;;;;;;5014980;27;20128;-44
2024/01/08 11:00:12;;;;;;;6.15;2.17;;;0.60;78.60;;;;;;5017756;28;20049;-40
2024/01/08 11:02:44;;;;;;;4.13;1.70;;;0.60;77.90;;;;;;5018330;27;20037;-41
2024/01/08 11:05:13;;;;;;;6.32;2.30;;;0.60;77.50;;;;;;5012734;27;20107;-40
2024/01/08 11:07:41;;;;;;;8.90;3.72;;;0.50;76.90;;;;;;5018217;27;20029;-40
2024/01/08 11:10:13;;;;;;;5.25;2.60;;;0.60;77.30;;;;;;5013343;28;20132;-41
2024/01/08 11:12:41;;;;;;;4.65;2.33;;;0.60;77.30;;;;;;5012562;27;20109;-40
2024/01/08 11:15:13;;;;;;;4.82;1.95;;;0.60;76.80;;;;;;5017951;28;20697;-40
2024/01/08 11:17:56;;;;;;;4.15;2.03;;;0.60;76.90;;;;;;5008546;27;20037;-40
2024/01/08 11:20:33;;;;;;;4.60;2.35;;;0.60;77.20;;;;;;4996517;28;20037;-40
2024/01/08 11:23:33;;;;;;;8.60;3.28;;;0.60;77.20;;;;;;5015762;28;20090;-40
2024/01/08 11:26:03;;;;;;;5.45;2.28;;;0.60;76.00;;;;;;5035102;27;20031;-40
2024/01/08 11:28:35;;;;;;;3.50;2.22;;;0.60;74.90;;;;;;5031021;27;20034;-40
2024/01/08 11:31:31;;;;;;;4.63;1.92;;;0.60;73.90;;;;;;5018533;28;20451;-40
2024/01/08 11:34:15;;;;;;;6.38;1.98;;;0.60;74.10;;;;;;5016279;27;20108;-41
2024/01/08 11:37:19;;;;;;;7.45;2.58;;;0.70;75.50;;;;;;5017482;28;20045;-42
2024/01/08 11:39:49;;;;;;;3.75;1.80;;;0.70;75.80;;;;;;5021775;27;20451;-40
2024/01/08 11:42:15;;;;;;;4.38;1.77;;;0.70;75.60;;;;;;5000079;27;20064;-40
2024/01/08 11:44:43;;;;;;;8.60;2.90;;;0.70;75.20;;;;;;5015123;28;20071;-41
2024/01/08 11:47:09;;;;;;;5.25;2.50;;;0.70;75.50;;;;;;5018563;28;20057;-40
2024/01/08 11:49:36;;;;;;;8.45;2.83;;;0.70;76.30;;;;;;5015518;27;20044;-41
2024/01/08 11:52:06;;;;;;;6.13;2.15;;;0.70;76.30;;;;;;5015129;27;20037;-41
2024/01/08 11:54:33;;;;;;;5.65;1.80;;;0.70;76.10;;;;;;5013580;28;20124;-41
2024/01/08 11:57:04;;;;;;;7.28;2.78;;;0.80;76.80;;;;;;5019322;28;20061;-41
2024/01/08 11:59:35;;;;;;;5.15;2.30;;;0.80;75.50;;;;;;5019590;27;20125;-40
2024/01/08 12:02:24;;;;;;;6.50;2.38;;;0.70;75.60;;;;;;5023950;28;20052;-45
2024/01/08 12:04:58;;;;;;;5.38;2.65;;;0.70;76.40;;;;;;5018739;28;20057;-42
2024/01/08 12:07:27;;;;;;;6.93;2.20;;;0.80;77.00;;;;;;5011759;28;20072;-43
2024/01/08 12:09:55;;;;;;;5.25;2.80;;;0.80;76.60;;;;;;5013777;27;20029;-42
2024/01/08 12:12:24;;;;;;;5.18;2.42;;;0.80;76.50;;;;;;5015117;28;20029;-42
2024/01/08 12:14:51;;;;;;;6.03;2.45;;;0.80;76.70;;;;;;5017165;27;20033;-41
2024/01/08 12:17:18;;;;;;;7.88;2.88;;;0.80;77.30;;;;;;5016007;28;20034;-41
2024/01/08 12:19:58;;;;;;;10.40;3.97;;;0.90;77.60;;;;;;5011460;27;20026;-43
2024/01/08 12:22:26;;;;;;;5.65;2.20;;;0.80;77.10;;;;;;5018103;27;20341;-44
2024/01/08 12:24:55;;;;;;;5.85;2.95;;;0.80;77.40;;;;;;5023033;27;20506;-41
2024/01/08 12:27:23;;;;;;;5.97;2.20;;;0.80;77.50;;;;;;5028587;27;20086;-43
2024/01/08 12:29:50;;;;;;;6.55;2.83;;;0.80;76.80;;;;;;4994570;28;20036;-43
2024/01/08 12:32:19;;;;;;;4.93;2.58;;;0.80;77.00;;;;;;5056211;27;20023;-43
2024/01/08 12:34:47;;;;;;;3.67;2.10;;;0.70;76.60;;;;;;5039621;27;20475;-46
2024/01/08 12:37:17;;;;;;;6.78;2.40;;;0.70;76.10;;;;;;5019259;27;20484;-41
2024/01/08 12:39:44;;;;;;;5.50;2.95;;;0.70;76.30;;;;;;5011622;27;20026;-46
2024/01/08 12:42:15;;;;;;;5.20;2.80;;;0.80;76.90;;;;;;4995670;28;20036;-43
2024/01/08 12:44:44;;;;;;;6.03;2.72;;;0.80;77.40;;;;;;5011064;27;20502;-42